createdAt,value
2022-11-05T00:00:32.069Z,9.667983
2022-11-05T00:01:32.082Z,9.668036
2022-11-05T00:02:32.037Z,9.668087
2022-11-05T00:03:32.181Z,9.667987
2022-11-05T00:04:32.019Z,9.668015
2022-11-05T00:05:32.021Z,9.667978
2022-11-05T00:06:32.029Z,9.668003
2022-11-05T00:07:32.000Z,9.668028
2022-11-05T00:08:32.005Z,9.668025
2022-11-05T00:09:31.973Z,9.668005
2022-11-05T00:10:32.000Z,9.668077
2022-11-05T00:11:31.984Z,9.668022
2022-11-05T00:12:31.959Z,9.668028
2022-11-05T00:13:31.967Z,9.668005
2022-11-05T00:14:31.970Z,9.667959
2022-11-05T00:15:31.946Z,9.667983
2022-11-05T00:16:31.917Z,9.667980
2022-11-05T00:17:31.920Z,9.667968
2022-11-05T00:18:31.935Z,9.667998
2022-11-05T00:19:32.951Z,9.667975
2022-11-05T00:20:31.891Z,9.667978
2022-11-05T00:21:31.898Z,9.668011
2022-11-05T00:22:31.874Z,9.668060
2022-11-05T00:23:31.862Z,9.668047
2022-11-05T00:24:31.850Z,9.668002
2022-11-05T00:25:31.887Z,9.668007
2022-11-05T00:26:31.845Z,9.668004
2022-11-05T00:27:31.863Z,9.667993
2022-11-05T00:28:31.811Z,9.667968
2022-11-05T00:29:31.843Z,9.667960
2022-11-05T00:30:31.808Z,9.668014
2022-11-05T00:31:31.797Z,9.667984
2022-11-05T00:32:31.824Z,9.667991
2022-11-05T00:33:31.812Z,9.668014
2022-11-05T00:34:31.762Z,9.668043
2022-11-05T00:35:31.768Z,9.668002
2022-11-05T00:36:31.783Z,9.667975
2022-11-05T00:37:31.854Z,9.667932
2022-11-05T00:38:31.738Z,9.667942
2022-11-05T00:39:31.725Z,9.667933
2022-11-05T00:40:32.606Z,9.667902
2022-11-05T00:41:32.543Z,9.667980
2022-11-05T00:42:31.704Z,9.667959
2022-11-05T00:43:31.727Z,9.667927
2022-11-05T00:44:31.697Z,9.667979
2022-11-05T00:45:31.685Z,9.667982
2022-11-05T00:46:31.704Z,9.667993
2022-11-05T00:47:31.662Z,9.667974
2022-11-05T00:48:31.694Z,9.667968
2022-11-05T00:49:32.656Z,9.667949
2022-11-05T00:50:31.650Z,9.667944
2022-11-05T00:51:31.688Z,9.667961
2022-11-05T00:52:31.659Z,9.667963
2022-11-05T00:53:31.662Z,9.667994
2022-11-05T00:54:31.654Z,9.667983
2022-11-05T00:55:31.652Z,9.667960
2022-11-05T00:56:31.595Z,9.667944
2022-11-05T00:57:31.891Z,9.667941
2022-11-05T00:58:31.684Z,9.667985
2022-11-05T00:59:31.625Z,9.667979
2022-11-05T01:00:31.584Z,9.667942
2022-11-05T01:01:31.707Z,9.667939
2022-11-05T01:02:31.701Z,9.667920
2022-11-05T01:03:31.581Z,9.667924
2022-11-05T01:04:31.594Z,9.667908
2022-11-05T01:05:31.542Z,9.667930
2022-11-05T01:06:31.546Z,9.667958
2022-11-05T01:07:31.552Z,9.667998
2022-11-05T01:08:31.506Z,9.668018
2022-11-05T01:09:32.519Z,9.668013
2022-11-05T01:10:31.508Z,9.668012
2022-11-05T01:11:31.550Z,9.668043
2022-11-05T01:12:31.499Z,9.668038
2022-11-05T01:13:31.478Z,9.668008
2022-11-05T01:14:31.464Z,9.667999
2022-11-05T01:15:31.495Z,9.668013
2022-11-05T01:16:31.485Z,9.667985
2022-11-05T01:17:31.454Z,9.667986
2022-11-05T01:18:31.452Z,9.667964
2022-11-05T01:19:31.451Z,9.667949
2022-11-05T01:20:31.432Z,9.667999
2022-11-05T01:21:31.456Z,9.668017
2022-11-05T01:22:31.451Z,9.668013
2022-11-05T01:23:31.451Z,9.668046
2022-11-05T01:24:31.418Z,9.668030
2022-11-05T01:25:31.506Z,9.668027
2022-11-05T01:26:31.382Z,9.668020
2022-11-05T01:27:31.393Z,9.668003
2022-11-05T01:28:31.448Z,9.667973
2022-11-05T01:29:31.359Z,9.667956
2022-11-05T01:30:31.364Z,9.667968
2022-11-05T01:31:31.358Z,9.667970
2022-11-05T01:32:31.347Z,9.667984
2022-11-05T01:33:31.382Z,9.668057
2022-11-05T01:34:31.318Z,9.668078
2022-11-05T01:35:31.320Z,9.668046
2022-11-05T01:36:31.324Z,9.668027
2022-11-05T01:37:31.387Z,9.668029
2022-11-05T01:38:31.334Z,9.667998
2022-11-05T01:39:31.295Z,9.668023
2022-11-05T01:40:31.322Z,9.668025
2022-11-05T01:41:31.264Z,9.668040
2022-11-05T01:42:32.173Z,9.668012
2022-11-05T01:43:31.294Z,9.668042
2022-11-05T01:44:31.280Z,9.667999
2022-11-05T02:04:12.327Z,9.667942
2022-11-05T02:05:12.326Z,9.668216
2022-11-05T02:06:12.332Z,9.668059
2022-11-05T02:07:12.302Z,9.667954
2022-11-05T02:08:12.297Z,9.667994
2022-11-05T02:09:12.293Z,9.667969
2022-11-05T02:10:12.286Z,9.667967
2022-11-05T02:11:12.291Z,9.667999
2022-11-05T02:12:12.271Z,9.667994
2022-11-05T02:13:12.633Z,9.668006
2022-11-05T02:14:22.599Z,9.668002
2022-11-05T02:15:44.152Z,9.668074
2022-11-05T02:16:12.248Z,9.668033
2022-11-05T02:17:12.306Z,9.668020
2022-11-05T02:18:12.227Z,9.668049
2022-11-05T02:19:12.196Z,9.668014
2022-11-05T02:20:12.231Z,9.668021
2022-11-05T02:21:12.192Z,9.668038
2022-11-05T02:22:12.226Z,9.668046
2022-11-05T02:23:12.563Z,9.668005
2022-11-05T02:24:12.165Z,9.667992
2022-11-05T02:25:12.817Z,9.668000
2022-11-05T02:26:12.230Z,9.667973
2022-11-05T02:27:12.996Z,9.668020
2022-11-05T02:28:12.202Z,9.668074
2022-11-05T02:29:12.198Z,9.668028
2022-11-05T02:30:12.148Z,9.667979
2022-11-05T02:31:12.144Z,9.668030
2022-11-05T02:32:12.105Z,9.668028
2022-11-05T02:33:13.105Z,9.668041
2022-11-05T02:34:12.086Z,9.668044
2022-11-05T02:35:12.102Z,9.668060
2022-11-05T02:36:12.138Z,9.668025
2022-11-05T02:37:12.076Z,9.668004
2022-11-05T02:38:12.971Z,9.668057
2022-11-05T02:39:12.054Z,9.668009
2022-11-05T02:40:12.071Z,9.668033
2022-11-05T02:41:12.029Z,9.668067
2022-11-05T02:42:12.026Z,9.668070
2022-11-05T02:43:12.381Z,9.668078
2022-11-05T02:44:12.014Z,9.668072
2022-11-05T02:45:12.010Z,9.668047
2022-11-05T02:46:12.028Z,9.668057
2022-11-05T02:47:17.872Z,9.668066
2022-11-05T02:48:13.969Z,9.668056
2022-11-05T02:49:12.062Z,9.668088
2022-11-05T02:50:11.993Z,9.668088
2022-11-05T02:51:11.937Z,9.668055
2022-11-05T02:52:11.951Z,9.668070
2022-11-05T02:53:12.391Z,9.668077
2022-11-05T02:54:11.933Z,9.668054
2022-11-05T02:55:11.957Z,9.668045
2022-11-05T02:56:11.924Z,9.668024
2022-11-05T02:57:11.917Z,9.667980
2022-11-05T02:58:11.913Z,9.668027
2022-11-05T02:59:11.918Z,9.668024
2022-11-05T03:00:11.886Z,9.668040
2022-11-05T03:01:11.916Z,9.668049
2022-11-05T03:02:12.028Z,9.668047
2022-11-05T03:03:12.229Z,9.668051
2022-11-05T03:04:12.255Z,9.667970
2022-11-05T03:05:12.869Z,9.667953
2022-11-05T03:06:11.925Z,9.668015
2022-11-05T03:07:13.409Z,9.668089
2022-11-05T03:08:11.871Z,9.668088
2022-11-05T03:09:11.822Z,9.668091
2022-11-05T03:10:11.814Z,9.668054
2022-11-05T03:11:11.837Z,9.668073
2022-11-05T03:12:11.790Z,9.668095
2022-11-05T03:13:12.238Z,9.668046
2022-11-05T03:14:11.774Z,9.667962
2022-11-05T03:15:11.769Z,9.668007
2022-11-05T03:16:11.753Z,9.668078
2022-11-05T03:17:11.735Z,9.668073
2022-11-05T03:18:11.771Z,9.668078
2022-11-05T03:19:11.765Z,9.668029
2022-11-05T03:20:11.861Z,9.668034
2022-11-05T03:21:11.721Z,9.668011
2022-11-05T03:22:11.734Z,9.668065
2022-11-05T03:23:12.151Z,9.668076
2022-11-05T03:24:12.691Z,9.668031
2022-11-05T03:25:11.684Z,9.668043
2022-11-05T03:26:11.672Z,9.668091
2022-11-05T03:27:11.693Z,9.668135
2022-11-05T03:28:11.662Z,9.668031
2022-11-05T03:29:11.677Z,9.667971
2022-11-05T03:30:11.650Z,9.668019
2022-11-05T03:31:11.653Z,9.667873
2022-11-05T03:32:11.658Z,9.667906
2022-11-05T03:33:11.986Z,9.668000
2022-11-05T03:34:11.612Z,9.667951
2022-11-05T03:35:11.632Z,9.667990
2022-11-05T03:36:11.602Z,9.667968
2022-11-05T03:37:11.607Z,9.667906
2022-11-05T03:38:11.586Z,9.667981
2022-11-05T03:39:11.579Z,9.667976
2022-11-05T03:40:11.582Z,9.667936
2022-11-05T03:41:11.568Z,9.667942
2022-11-05T03:42:11.564Z,9.667997
2022-11-05T03:43:11.823Z,9.667901
2022-11-05T03:44:11.544Z,9.667954
2022-11-05T03:45:11.541Z,9.668006
2022-11-05T03:46:11.569Z,9.668005
2022-11-05T03:47:11.526Z,9.668017
2022-11-05T04:08:41.062Z,9.668097
2022-11-05T04:09:41.041Z,9.668015
2022-11-05T04:10:41.178Z,9.667986
2022-11-05T04:11:41.032Z,9.667987
2022-11-05T04:12:41.660Z,9.667982
2022-11-05T04:13:41.024Z,9.667994
2022-11-05T04:14:41.023Z,9.668017
2022-11-05T04:15:41.708Z,9.667977
2022-11-05T04:16:40.999Z,9.667975
2022-11-05T04:17:41.720Z,9.668030
2022-11-05T04:18:41.077Z,9.668007
2022-11-05T04:19:40.975Z,9.667896
2022-11-05T04:20:40.978Z,9.667853
2022-11-05T04:21:40.936Z,9.667903
2022-11-05T04:22:40.956Z,9.668017
2022-11-05T04:23:40.953Z,9.668014
2022-11-05T04:24:40.970Z,9.667977
2022-11-05T04:25:40.928Z,9.667983
2022-11-05T04:26:40.934Z,9.668021
2022-11-05T04:27:40.912Z,9.668009
2022-11-05T04:28:40.919Z,9.667998
2022-11-05T04:29:40.898Z,9.667941
2022-11-05T04:30:40.877Z,9.668000
2022-11-05T04:31:40.877Z,9.667950
2022-11-05T04:32:40.871Z,9.667974
2022-11-05T04:33:40.885Z,9.667974
2022-11-05T04:34:40.858Z,9.668006
2022-11-05T04:35:40.840Z,9.667980
2022-11-05T04:36:40.918Z,9.668001
2022-11-05T04:37:40.831Z,9.667994
2022-11-05T04:38:40.846Z,9.667975
2022-11-05T04:39:40.878Z,9.667970
2022-11-05T04:40:42.674Z,9.668006
2022-11-05T04:41:40.808Z,9.668024
2022-11-05T04:42:40.829Z,9.668015
2022-11-05T04:43:43.743Z,9.667986
2022-11-05T04:44:40.779Z,9.667995
2022-11-05T04:45:40.793Z,9.667986
2022-11-05T04:46:42.685Z,9.667982
2022-11-05T04:47:41.610Z,9.667976
2022-11-05T04:48:40.740Z,9.667987
2022-11-05T04:49:40.735Z,9.668016
2022-11-05T04:50:40.742Z,9.668017
2022-11-05T04:51:40.731Z,9.667979
2022-11-05T04:52:40.724Z,9.667968
2022-11-05T04:53:40.698Z,9.667968
2022-11-05T04:54:40.707Z,9.667960
2022-11-05T04:55:40.702Z,9.667996
2022-11-05T04:56:40.711Z,9.667974
2022-11-05T04:57:40.676Z,9.667991
2022-11-05T04:58:43.185Z,9.667993
2022-11-05T04:59:40.702Z,9.668001
2022-11-05T05:00:40.705Z,9.668022
2022-11-05T05:01:40.845Z,9.668048
2022-11-05T05:02:40.647Z,9.667980
2022-11-05T05:03:40.637Z,9.667992
2022-11-05T05:04:40.637Z,9.668000
2022-11-05T05:05:40.630Z,9.668008
2022-11-05T05:06:40.604Z,9.668005
2022-11-05T05:07:40.612Z,9.667949
2022-11-05T05:08:40.585Z,9.667955
2022-11-05T05:09:40.635Z,9.668019
2022-11-05T05:10:40.573Z,9.667953
2022-11-05T05:11:40.567Z,9.667933
2022-11-05T05:12:40.608Z,9.667997
2022-11-05T05:13:40.583Z,9.667932
2022-11-05T05:14:40.560Z,9.667910
2022-11-05T05:15:40.538Z,9.667827
2022-11-05T05:16:40.557Z,9.667832
2022-11-05T05:17:40.542Z,9.667854
2022-11-05T05:18:45.951Z,9.667821
2022-11-05T05:19:42.506Z,9.667789
2022-11-05T05:20:40.529Z,9.667927
2022-11-05T05:21:40.573Z,9.667920
2022-11-05T05:22:40.480Z,9.668034
2022-11-05T05:23:40.497Z,9.668005
2022-11-05T05:24:40.471Z,9.667969
2022-11-05T05:25:40.483Z,9.667921
2022-11-05T05:26:40.468Z,9.667959
2022-11-05T05:27:40.465Z,9.667973
2022-11-05T05:28:41.182Z,9.667974
2022-11-05T05:29:40.428Z,9.667894
2022-11-05T05:30:40.461Z,9.667939
2022-11-05T05:31:40.440Z,9.667922
2022-11-05T05:32:40.413Z,9.667893
2022-11-05T05:33:40.409Z,9.667941
2022-11-05T05:34:40.393Z,9.667931
2022-11-05T05:35:40.463Z,9.667940
2022-11-05T05:36:40.401Z,9.667910
2022-11-05T05:37:40.417Z,9.667885
2022-11-05T05:38:40.358Z,9.667969
2022-11-05T05:39:40.386Z,9.667953
2022-11-05T05:40:40.352Z,9.667996
2022-11-05T05:41:40.345Z,9.667962
2022-11-05T05:42:43.173Z,9.667903
2022-11-05T05:43:41.360Z,9.667923
2022-11-05T05:44:40.340Z,9.667983
2022-11-05T05:45:40.341Z,9.667982
2022-11-05T05:46:40.304Z,9.667974
2022-11-05T05:47:40.299Z,9.668028
2022-11-05T05:48:40.329Z,9.667964
2022-11-05T05:49:40.286Z,9.667933
2022-11-05T05:50:40.295Z,9.668017
2022-11-05T05:51:40.274Z,9.667976
2022-11-05T05:52:40.273Z,9.667974
2022-11-05T05:53:40.266Z,9.667958
2022-11-05T05:54:42.877Z,9.667983
2022-11-05T05:55:41.280Z,9.667970
2022-11-05T05:56:40.260Z,9.667973
2022-11-05T05:57:40.239Z,9.668002
2022-11-05T05:58:40.244Z,9.668014
2022-11-05T05:59:40.227Z,9.668018
2022-11-05T06:00:40.235Z,9.668023
2022-11-05T06:01:40.309Z,9.667988
2022-11-05T06:02:40.400Z,9.667995
2022-11-05T06:03:40.288Z,9.667969
2022-11-05T06:04:40.199Z,9.668017
2022-11-05T06:05:40.240Z,9.668052
2022-11-05T06:06:40.168Z,9.668000
2022-11-05T06:07:40.174Z,9.667992
2022-11-05T06:08:40.150Z,9.667968
2022-11-05T06:09:41.756Z,9.668017
2022-11-05T06:10:40.206Z,9.667997
2022-11-05T06:11:40.137Z,9.668034
2022-11-05T06:12:40.187Z,9.667987
2022-11-05T06:13:40.937Z,9.667963
2022-11-05T06:14:40.103Z,9.668002
2022-11-05T06:15:40.697Z,9.667948
2022-11-05T06:16:42.033Z,9.667996
2022-11-05T06:17:40.110Z,9.668058
2022-11-05T06:18:40.720Z,9.668138
2022-11-05T06:19:40.063Z,9.668096
2022-11-05T06:20:40.061Z,9.668039
2022-11-05T06:21:40.707Z,9.668096
2022-11-05T06:22:40.058Z,9.668042
2022-11-05T06:23:40.055Z,9.668010
2022-11-05T06:24:40.063Z,9.668048
2022-11-05T06:25:41.400Z,9.668041
2022-11-05T06:26:41.022Z,9.667929
2022-11-05T06:27:40.001Z,9.667977
2022-11-05T06:28:40.007Z,9.667945
2022-11-05T06:29:39.985Z,9.667949
2022-11-05T06:30:39.995Z,9.668027
2022-11-05T06:31:39.987Z,9.667986
2022-11-05T06:32:39.983Z,9.668033
2022-11-05T06:33:39.995Z,9.667989
2022-11-05T06:34:39.946Z,9.668000
2022-11-05T06:35:39.987Z,9.667925
2022-11-05T06:36:39.936Z,9.667858
2022-11-05T06:37:39.927Z,9.667998
2022-11-05T06:38:39.944Z,9.668001
2022-11-05T06:39:39.934Z,9.667980
2022-11-05T06:40:39.907Z,9.668002
2022-11-05T06:42:03.923Z,9.667976
2022-11-05T06:42:41.974Z,9.668025
2022-11-05T06:43:40.705Z,9.667993
2022-11-05T06:44:39.867Z,9.667944
2022-11-05T06:45:39.923Z,9.667978
2022-11-05T06:46:44.411Z,9.668056
2022-11-05T06:47:40.856Z,9.668034
2022-11-05T06:48:39.886Z,9.668001
2022-11-05T06:49:39.845Z,9.667941
2022-11-05T06:50:40.755Z,9.667935
2022-11-05T06:51:39.860Z,9.667932
2022-11-05T06:52:41.355Z,9.667930
2022-11-05T06:53:40.809Z,9.668011
2022-11-05T06:54:41.175Z,9.668010
2022-11-05T06:55:39.814Z,9.667958
2022-11-05T06:56:39.787Z,9.667950
2022-11-05T06:57:39.831Z,9.667979
2022-11-05T06:58:39.863Z,9.668012
2022-11-05T06:59:40.619Z,9.667923
2022-11-05T07:00:39.859Z,9.667991
2022-11-05T07:01:39.941Z,9.667892
2022-11-05T07:02:39.732Z,9.667969
2022-11-05T07:03:39.937Z,9.667940
2022-11-05T07:04:40.006Z,9.667978
2022-11-05T07:05:39.736Z,9.668015
2022-11-05T07:06:40.599Z,9.668023
2022-11-05T07:07:39.742Z,9.668087
2022-11-05T07:08:40.734Z,9.668003
2022-11-05T07:09:40.674Z,9.667988
2022-11-05T07:10:39.742Z,9.667980
2022-11-05T07:11:39.772Z,9.667988
2022-11-05T07:12:39.692Z,9.667971
2022-11-05T07:13:39.735Z,9.667931
2022-11-05T07:14:39.664Z,9.668018
2022-11-05T07:15:41.186Z,9.667991
2022-11-05T07:16:39.665Z,9.667965
2022-11-05T07:17:39.662Z,9.667970
2022-11-05T07:18:39.637Z,9.667996
2022-11-05T07:19:39.638Z,9.667952
2022-11-05T07:20:39.619Z,9.667978
2022-11-05T07:21:39.621Z,9.668050
2022-11-05T07:22:39.649Z,9.667993
2022-11-05T07:23:39.587Z,9.667852
2022-11-05T07:24:39.585Z,9.667779
2022-11-05T07:25:39.582Z,9.667921
2022-11-05T07:26:39.651Z,9.667925
2022-11-05T07:27:39.580Z,9.667910
2022-11-05T07:28:39.573Z,9.667950
2022-11-05T07:29:39.552Z,9.668044
2022-11-05T07:30:39.635Z,9.668024
2022-11-05T07:31:39.532Z,9.668081
2022-11-05T07:32:40.154Z,9.668056
2022-11-05T07:33:40.209Z,9.668083
2022-11-05T07:34:39.503Z,9.667851
2022-11-05T07:35:39.504Z,9.667808
2022-11-05T07:36:39.482Z,9.667880
2022-11-05T07:37:39.485Z,9.667919
2022-11-05T07:38:39.471Z,9.667921
2022-11-05T07:39:42.125Z,9.668009
2022-11-05T07:40:39.455Z,9.668002
2022-11-05T07:41:39.516Z,9.667994
2022-11-05T07:42:39.430Z,9.668054
2022-11-05T07:43:39.451Z,9.667940
2022-11-05T07:44:41.651Z,9.667991
2022-11-05T07:45:39.418Z,9.667886
2022-11-05T07:46:39.508Z,9.668021
2022-11-05T07:47:39.443Z,9.668003
2022-11-05T07:48:39.392Z,9.667897
2022-11-05T07:49:39.430Z,9.667955
2022-11-05T07:50:39.400Z,9.667953
2022-11-05T07:51:39.385Z,9.667985
2022-11-05T07:52:39.385Z,9.667972
2022-11-05T07:53:44.902Z,9.668001
2022-11-05T07:54:41.395Z,9.667914
2022-11-05T07:55:39.352Z,9.668007
2022-11-05T07:56:39.326Z,9.667987
2022-11-05T07:57:39.346Z,9.667957
2022-11-05T07:58:40.200Z,9.667974
2022-11-05T07:59:39.306Z,9.668016
2022-11-05T08:00:39.432Z,9.667989
2022-11-05T08:01:39.508Z,9.668050
2022-11-05T08:02:39.578Z,9.668037
2022-11-05T08:03:39.445Z,9.668070
2022-11-05T08:04:39.266Z,9.668039
2022-11-05T08:05:39.463Z,9.668015
2022-11-05T08:06:39.340Z,9.667996
2022-11-05T08:07:40.049Z,9.668001
2022-11-05T08:08:41.733Z,9.667975
2022-11-05T08:09:39.219Z,9.667974
2022-11-05T08:10:39.263Z,9.667972
2022-11-05T08:11:39.259Z,9.667976
2022-11-05T08:12:43.130Z,9.667994
2022-11-05T08:13:39.248Z,9.667966
2022-11-05T08:15:11.105Z,9.667964
2022-11-05T08:15:39.257Z,9.667958
2022-11-05T08:16:39.172Z,9.667951
2022-11-05T08:17:39.253Z,9.667953
2022-11-05T08:18:39.200Z,9.667956
2022-11-05T08:19:39.163Z,9.667944
2022-11-05T08:20:39.161Z,9.667948
2022-11-05T08:21:39.143Z,9.667946
2022-11-05T08:22:40.137Z,9.667963
2022-11-05T08:23:39.135Z,9.667978
2022-11-05T08:24:39.113Z,9.667953
2022-11-05T08:25:39.109Z,9.667949
2022-11-05T08:26:39.084Z,9.667954
2022-11-05T08:27:39.090Z,9.668021
2022-11-05T08:28:39.123Z,9.667991
2022-11-05T08:29:39.100Z,9.667994
2022-11-05T08:30:39.096Z,9.667994
2022-11-05T08:31:39.068Z,9.667996
2022-11-05T08:32:39.071Z,9.668025
2022-11-05T08:33:39.083Z,9.668008
2022-11-05T08:34:39.049Z,9.667966
2022-11-05T08:35:39.022Z,9.667987
2022-11-05T08:36:39.019Z,9.667998
2022-11-05T08:37:39.063Z,9.667977
2022-11-05T08:38:38.999Z,9.667990
2022-11-05T08:39:39.034Z,9.667975
2022-11-05T08:40:39.002Z,9.668012
2022-11-05T08:41:38.987Z,9.667964
2022-11-05T08:42:39.026Z,9.667936
2022-11-05T08:43:39.663Z,9.667970
2022-11-05T08:44:38.988Z,9.667976
2022-11-05T08:45:39.592Z,9.667978
2022-11-05T08:46:41.527Z,9.667958
2022-11-05T08:47:39.975Z,9.668000
2022-11-05T08:48:38.926Z,9.667977
2022-11-05T08:49:39.002Z,9.667949
2022-11-05T08:50:38.906Z,9.667957
2022-11-05T08:51:38.982Z,9.667976
2022-11-05T08:52:38.906Z,9.667948
2022-11-05T08:53:38.952Z,9.667961
2022-11-05T08:54:38.884Z,9.667962
2022-11-05T08:55:38.894Z,9.667956
2022-11-05T08:56:38.987Z,9.667993
2022-11-05T08:57:38.872Z,9.668007
2022-11-05T08:58:38.887Z,9.668004
2022-11-05T08:59:38.845Z,9.668027
2022-11-05T09:00:39.011Z,9.668029
2022-11-05T09:01:38.957Z,9.668003
2022-11-05T09:02:38.893Z,9.667997
2022-11-05T09:03:38.861Z,9.667990
2022-11-05T09:04:38.873Z,9.667990
2022-11-05T09:05:38.815Z,9.667943
2022-11-05T09:06:38.799Z,9.667961
2022-11-05T09:07:38.784Z,9.667978
2022-11-05T09:08:38.800Z,9.667971
2022-11-05T09:09:38.782Z,9.667949
2022-11-05T09:10:38.789Z,9.667914
2022-11-05T09:12:09.868Z,9.667955
2022-11-05T09:12:40.755Z,9.667964
2022-11-05T09:13:38.744Z,9.668020
2022-11-05T09:14:38.774Z,9.668015
2022-11-05T09:15:38.717Z,9.667998
2022-11-05T09:16:38.754Z,9.668003
2022-11-05T09:17:38.741Z,9.668016
2022-11-05T09:18:38.686Z,9.668028
2022-11-05T09:19:39.974Z,9.667998
2022-11-05T09:20:39.704Z,9.668000
2022-11-05T09:21:38.730Z,9.668004
2022-11-05T09:22:43.116Z,9.668027
2022-11-05T09:23:39.664Z,9.668032
2022-11-05T09:24:38.698Z,9.668026
2022-11-05T09:25:38.653Z,9.668038
2022-11-05T09:26:38.634Z,9.668030
2022-11-05T09:27:38.657Z,9.668041
2022-11-05T09:28:38.645Z,9.667999
2022-11-05T09:29:38.722Z,9.667995
2022-11-05T09:30:38.613Z,9.667960
2022-11-05T09:31:38.641Z,9.667974
2022-11-05T09:32:38.591Z,9.667966
2022-11-05T09:33:38.580Z,9.667939
2022-11-05T09:34:38.589Z,9.668020
2022-11-05T09:35:38.570Z,9.668016
2022-11-05T09:36:38.591Z,9.668028
2022-11-05T09:37:38.567Z,9.668029
2022-11-05T09:38:38.541Z,9.667987
2022-11-05T09:39:38.557Z,9.668015
2022-11-05T09:40:38.561Z,9.668006
2022-11-05T09:41:38.596Z,9.668046
2022-11-05T09:42:38.532Z,9.668012
2022-11-05T09:43:38.493Z,9.667994
2022-11-05T09:44:38.519Z,9.668043
2022-11-05T09:45:38.494Z,9.668020
2022-11-05T09:46:38.481Z,9.667949
2022-11-05T09:47:38.538Z,9.667955
2022-11-05T09:48:38.481Z,9.668011
2022-11-05T09:49:38.455Z,9.667994
2022-11-05T09:50:38.473Z,9.668047
2022-11-05T09:51:38.430Z,9.667994
2022-11-05T09:52:38.436Z,9.668007
2022-11-05T09:53:38.444Z,9.668020
2022-11-05T09:54:38.439Z,9.667999
2022-11-05T09:55:38.456Z,9.668011
2022-11-05T09:56:38.411Z,9.668056
2022-11-05T09:57:39.147Z,9.668088
2022-11-05T09:58:38.439Z,9.668076
2022-11-05T09:59:38.389Z,9.668014
2022-11-05T10:00:38.381Z,9.668047
2022-11-05T10:01:38.648Z,9.668025
2022-11-05T10:02:38.446Z,9.668039
2022-11-05T10:03:38.375Z,9.668040
2022-11-05T10:04:38.347Z,9.668012
2022-11-05T10:05:39.273Z,9.668025
2022-11-05T10:06:38.341Z,9.667983
2022-11-05T10:07:38.304Z,9.667964
2022-11-05T10:08:38.317Z,9.667973
2022-11-05T10:09:38.326Z,9.668014
2022-11-05T10:10:41.074Z,9.668037
2022-11-05T10:11:39.293Z,9.668032
2022-11-05T10:12:38.270Z,9.667976
2022-11-05T10:13:38.282Z,9.667953
2022-11-05T10:14:38.294Z,9.668003
2022-11-05T10:15:39.291Z,9.668016
2022-11-05T10:16:38.278Z,9.667997
2022-11-05T10:17:39.372Z,9.667986
2022-11-05T10:18:39.243Z,9.668037
2022-11-05T10:19:38.221Z,9.668000
2022-11-05T10:20:38.218Z,9.668026
2022-11-05T10:22:04.987Z,9.667979
2022-11-05T10:22:43.900Z,9.667991
2022-11-05T10:23:39.197Z,9.668009
2022-11-05T10:24:38.266Z,9.668006
2022-11-05T10:25:38.191Z,9.668000
2022-11-05T10:26:38.190Z,9.668011
2022-11-05T10:27:38.175Z,9.668018
2022-11-05T10:28:38.212Z,9.668058
2022-11-05T10:29:38.165Z,9.668049
2022-11-05T10:30:38.176Z,9.667979
2022-11-05T10:31:39.141Z,9.668019
2022-11-05T10:32:38.129Z,9.668015
2022-11-05T10:33:38.129Z,9.668028
2022-11-05T10:34:38.173Z,9.668015
2022-11-05T10:35:38.135Z,9.668019
2022-11-05T10:36:38.107Z,9.668007
2022-11-05T10:37:40.855Z,9.667989
2022-11-05T10:38:39.103Z,9.667988
2022-11-05T10:39:38.149Z,9.667996
2022-11-05T10:40:42.823Z,9.667994
2022-11-05T10:41:40.831Z,9.667966
2022-11-05T10:42:38.086Z,9.668006
2022-11-05T10:43:38.054Z,9.668041
2022-11-05T10:44:38.060Z,9.668038
2022-11-05T10:45:38.066Z,9.668026
2022-11-05T10:46:38.018Z,9.667988
2022-11-05T10:47:39.031Z,9.668011
2022-11-05T10:48:43.277Z,9.667999
2022-11-05T10:49:40.031Z,9.667983
2022-11-05T10:50:38.011Z,9.668018
2022-11-05T10:51:38.006Z,9.668007
2022-11-05T10:52:37.965Z,9.668039
2022-11-05T10:53:39.026Z,9.668035
2022-11-05T10:54:37.967Z,9.668060
2022-11-05T10:55:37.962Z,9.668021
2022-11-05T10:56:38.631Z,9.668042
2022-11-05T10:57:37.985Z,9.668026
2022-11-05T10:58:37.977Z,9.668056
2022-11-05T10:59:37.946Z,9.668052
2022-11-05T11:00:38.082Z,9.668044
2022-11-05T11:01:38.071Z,9.668032
2022-11-05T11:02:37.967Z,9.668061
2022-11-05T11:03:37.913Z,9.668004
2022-11-05T11:04:38.373Z,9.668027
2022-11-05T11:05:38.894Z,9.668058
2022-11-05T11:06:37.901Z,9.668058
2022-11-05T11:07:38.656Z,9.668045
2022-11-05T11:08:38.912Z,9.668055
2022-11-05T11:09:37.872Z,9.668028
2022-11-05T11:10:37.845Z,9.668006
2022-11-05T11:11:37.847Z,9.668079
2022-11-05T11:12:40.879Z,9.668093
2022-11-05T11:13:39.851Z,9.668092
2022-11-05T11:14:37.805Z,9.668065
2022-11-05T11:15:37.843Z,9.668110
2022-11-05T11:16:37.815Z,9.668038
2022-11-05T11:17:37.805Z,9.668066
2022-11-05T11:18:40.194Z,9.668037
2022-11-05T11:19:38.801Z,9.668004
2022-11-05T11:20:37.773Z,9.668047
2022-11-05T11:21:37.754Z,9.668009
2022-11-05T11:22:37.786Z,9.668029
2022-11-05T11:23:37.818Z,9.668034
2022-11-05T11:24:37.766Z,9.668039
2022-11-05T11:25:37.727Z,9.668028
2022-11-05T11:26:37.791Z,9.668025
2022-11-05T11:27:37.755Z,9.668042
2022-11-05T11:28:37.716Z,9.668056
2022-11-05T11:29:37.733Z,9.668036
2022-11-05T11:30:37.706Z,9.668093
2022-11-05T11:31:37.679Z,9.668125
2022-11-05T11:32:37.713Z,9.668094
2022-11-05T11:33:37.678Z,9.668036
2022-11-05T11:34:37.688Z,9.668014
2022-11-05T11:35:37.714Z,9.668019
2022-11-05T11:36:37.638Z,9.667997
2022-11-05T11:37:38.142Z,9.668088
2022-11-05T11:38:37.628Z,9.668056
2022-11-05T11:39:37.651Z,9.668029
2022-11-05T11:40:37.637Z,9.668027
2022-11-05T11:41:37.636Z,9.668011
2022-11-05T11:42:37.599Z,9.668040
2022-11-05T11:43:37.582Z,9.668071
2022-11-05T11:44:37.611Z,9.668021
2022-11-05T11:45:37.586Z,9.668032
2022-11-05T11:46:37.563Z,9.668023
2022-11-05T11:47:38.342Z,9.668055
2022-11-05T11:48:37.543Z,9.668061
2022-11-05T11:49:37.536Z,9.668074
2022-11-05T11:50:37.549Z,9.668041
2022-11-05T11:51:37.554Z,9.668064
2022-11-05T11:52:37.540Z,9.668047
2022-11-05T11:53:37.551Z,9.668056
2022-11-05T11:54:37.528Z,9.668011
2022-11-05T11:55:37.546Z,9.668015
2022-11-05T11:56:37.498Z,9.668036
2022-11-05T11:57:37.491Z,9.668031
2022-11-05T11:58:37.481Z,9.668044
2022-11-05T12:00:39.521Z,9.668032
2022-11-05T12:01:37.591Z,9.668050
2022-11-05T12:02:37.566Z,9.668062
2022-11-05T12:03:37.448Z,9.667976
2022-11-05T12:04:37.436Z,9.668017
2022-11-05T12:05:37.433Z,9.668022
2022-11-05T12:06:37.417Z,9.668040
2022-11-05T12:07:37.435Z,9.668008
2022-11-05T12:08:38.855Z,9.668072
2022-11-05T12:09:37.381Z,9.668105
2022-11-05T12:10:37.417Z,9.668097
2022-11-05T12:11:37.390Z,9.668055
2022-11-05T12:12:37.450Z,9.668094
2022-11-05T12:13:37.363Z,9.668067
2022-11-05T12:14:40.198Z,9.668054
2022-11-05T12:15:38.359Z,9.668086
2022-11-05T12:16:37.335Z,9.668082
2022-11-05T12:17:37.325Z,9.668046
2022-11-05T12:18:37.369Z,9.668122
2022-11-05T12:19:37.346Z,9.668089
2022-11-05T12:20:37.309Z,9.667991
2022-11-05T12:21:52.120Z,9.668066
2022-11-05T12:22:39.302Z,9.668062
2022-11-05T12:23:37.329Z,9.667982
2022-11-05T12:24:37.353Z,9.668065